createdAt,value
2023-01-22T00:01:17.128Z,0
2023-01-22T00:06:17.186Z,0
2023-01-22T00:11:17.154Z,0
2023-01-22T00:16:17.253Z,0
2023-01-22T00:21:17.146Z,0
2023-01-22T00:26:17.139Z,0
2023-01-22T00:31:17.433Z,0
2023-01-22T00:36:17.178Z,0
2023-01-22T00:41:17.289Z,0
2023-01-22T00:52:09.976Z,0
2023-01-22T00:56:17.155Z,0
2023-01-22T01:01:17.200Z,0
2023-01-22T01:06:17.153Z,0
2023-01-22T01:11:17.151Z,0
2023-01-22T01:21:18.394Z,0
2023-01-22T01:26:17.218Z,0
2023-01-22T01:31:17.449Z,0
2023-01-22T01:36:19.719Z,0
2023-01-22T01:41:17.157Z,0
2023-01-22T01:46:17.236Z,0
2023-01-22T01:51:17.434Z,0
2023-01-22T01:56:17.188Z,0
2023-01-22T02:01:17.141Z,0
2023-01-22T02:06:17.183Z,0
2023-01-22T02:11:17.195Z,0
2023-01-22T02:16:17.215Z,0
2023-01-22T02:21:17.193Z,0
2023-01-22T02:26:17.190Z,0
2023-01-22T02:31:17.191Z,0
2023-01-22T02:36:17.153Z,0
2023-01-22T02:41:17.178Z,0
2023-01-22T02:46:17.156Z,0
2023-01-22T02:51:17.258Z,0
2023-01-22T02:56:17.201Z,0
2023-01-22T03:01:17.230Z,0
2023-01-22T03:06:17.194Z,0
2023-01-22T03:11:17.167Z,0
2023-01-22T03:16:17.220Z,0
2023-01-22T03:21:17.217Z,0
2023-01-22T03:26:17.208Z,0
2023-01-22T03:31:17.415Z,0
2023-01-22T03:36:17.151Z,0
2023-01-22T03:41:17.171Z,0
2023-01-22T03:46:17.286Z,0
2023-01-22T03:51:18.465Z,0
2023-01-22T03:56:17.186Z,0
2023-01-22T04:01:17.271Z,0
2023-01-22T04:06:17.189Z,0
2023-01-22T04:11:17.218Z,0
2023-01-22T04:16:17.862Z,0
2023-01-22T04:21:17.230Z,0
2023-01-22T04:26:17.200Z,0
2023-01-22T04:31:17.318Z,0
2023-01-22T04:36:17.181Z,0
2023-01-22T04:41:17.178Z,0
2023-01-22T04:46:17.803Z,0
2023-01-22T04:51:18.508Z,0
2023-01-22T04:56:17.180Z,0
2023-01-22T05:01:17.223Z,0
2023-01-22T05:06:17.218Z,0
2023-01-22T05:11:17.192Z,0
2023-01-22T05:16:17.201Z,0
2023-01-22T05:21:17.185Z,0
2023-01-22T05:26:17.189Z,0
2023-01-22T05:31:17.233Z,0
2023-01-22T05:36:17.226Z,0
2023-01-22T05:41:17.217Z,0
2023-01-22T05:46:17.246Z,0
2023-01-22T05:51:17.297Z,0
2023-01-22T05:56:17.221Z,0
2023-01-22T06:01:17.199Z,0
2023-01-22T06:06:17.254Z,0
2023-01-22T06:11:17.207Z,0
2023-01-22T06:16:17.360Z,0
2023-01-22T06:21:17.189Z,0
2023-01-22T06:26:17.207Z,0
2023-01-22T06:31:17.372Z,0
2023-01-22T06:36:17.408Z,0
2023-01-22T06:41:17.236Z,0
2023-01-22T06:46:17.319Z,0
2023-01-22T06:51:17.439Z,0
2023-01-22T06:56:17.257Z,0
2023-01-22T07:01:17.304Z,0
2023-01-22T07:06:17.206Z,0
2023-01-22T07:11:17.205Z,0
2023-01-22T07:16:17.268Z,0
2023-01-22T07:21:17.220Z,0
2023-01-22T07:26:17.229Z,0
2023-01-22T07:31:17.273Z,0
2023-01-22T07:36:17.213Z,265
2023-01-22T07:41:25.370Z,0
2023-01-22T07:46:17.354Z,265
2023-01-22T07:51:17.364Z,267
2023-01-22T07:56:17.222Z,270
2023-01-22T08:01:17.291Z,272
2023-01-22T08:06:17.245Z,271
2023-01-22T08:11:17.249Z,272
2023-01-22T08:21:17.229Z,277
2023-01-22T08:26:17.228Z,277
2023-01-22T08:31:27.684Z,281
2023-01-22T08:36:17.241Z,282
2023-01-22T08:41:17.279Z,280
2023-01-22T08:46:17.280Z,280
2023-01-22T08:51:17.360Z,279
2023-01-22T08:56:17.259Z,276
2023-01-22T09:01:17.328Z,277
2023-01-22T09:06:17.310Z,277
2023-01-22T09:11:17.236Z,274
2023-01-22T09:16:17.312Z,276
2023-01-22T09:21:17.314Z,274
2023-01-22T09:26:17.236Z,273
2023-01-22T09:31:17.309Z,275
2023-01-22T09:36:17.279Z,274
2023-01-22T09:41:17.268Z,277
2023-01-22T09:46:17.376Z,280
2023-01-22T09:51:17.569Z,280
2023-01-22T09:56:17.250Z,284
2023-01-22T10:01:17.324Z,282
2023-01-22T10:06:17.272Z,284
2023-01-22T10:17:12.834Z,286
2023-01-22T10:21:17.289Z,298
2023-01-22T10:26:17.266Z,306
2023-01-22T10:31:17.402Z,303
2023-01-22T10:36:17.260Z,297
2023-01-22T10:41:17.278Z,290
2023-01-22T10:46:17.496Z,288
2023-01-22T10:51:17.308Z,287
2023-01-22T10:56:17.256Z,297
2023-01-22T11:01:17.308Z,293
2023-01-22T11:06:17.298Z,292
2023-01-22T11:11:17.446Z,292
2023-01-22T11:16:17.354Z,299
2023-01-22T11:21:17.312Z,298
2023-01-22T11:26:17.273Z,296
2023-01-22T11:31:17.447Z,299
2023-01-22T11:36:17.258Z,301
2023-01-22T11:41:17.267Z,300
2023-01-22T11:46:17.326Z,297
2023-01-22T11:51:17.347Z,287
2023-01-22T11:56:17.304Z,291
2023-01-22T12:01:17.261Z,291
2023-01-22T12:06:17.303Z,295
2023-01-22T12:11:17.437Z,297
2023-01-22T12:16:17.374Z,312
2023-01-22T12:21:17.291Z,314
2023-01-22T12:26:17.285Z,306
2023-01-22T12:31:17.353Z,306
2023-01-22T12:36:17.278Z,295
2023-01-22T12:41:17.351Z,288
2023-01-22T12:46:17.333Z,304
2023-01-22T12:51:17.372Z,306
2023-01-22T12:56:17.318Z,303
2023-01-22T13:01:17.279Z,294
2023-01-22T13:06:17.290Z,278
2023-01-22T13:11:17.277Z,279
2023-01-22T13:16:17.439Z,279
2023-01-22T13:21:17.305Z,279
2023-01-22T13:26:17.330Z,278
2023-01-22T13:31:17.408Z,271
2023-01-22T13:36:17.317Z,277
2023-01-22T13:41:17.333Z,277
2023-01-22T13:46:17.334Z,277
2023-01-22T13:51:17.406Z,280
2023-01-22T13:56:17.285Z,278
2023-01-22T14:01:17.381Z,276
2023-01-22T14:06:17.300Z,279
2023-01-22T14:11:17.315Z,279
2023-01-22T14:16:17.430Z,274
2023-01-22T14:21:17.311Z,271
2023-01-22T14:26:17.307Z,266
2023-01-22T14:31:17.416Z,266
2023-01-22T14:36:17.339Z,266
2023-01-22T14:41:17.305Z,269
2023-01-22T14:46:17.339Z,270
2023-01-22T14:51:17.385Z,267
2023-01-22T14:56:17.445Z,268
2023-01-22T15:01:17.512Z,266
2023-01-22T15:06:17.357Z,265
2023-01-22T15:11:17.309Z,0
2023-01-22T15:16:17.566Z,265
2023-01-22T15:21:17.344Z,0
2023-01-22T15:26:17.309Z,0
2023-01-22T15:31:17.352Z,0
2023-01-22T15:36:17.335Z,0
2023-01-22T15:41:17.328Z,0
2023-01-22T15:46:17.369Z,0
2023-01-22T15:51:17.435Z,0
2023-01-22T15:56:17.340Z,0
2023-01-22T16:01:17.359Z,0
2023-01-22T16:06:17.443Z,0
2023-01-22T16:11:17.372Z,0
2023-01-22T16:16:17.934Z,0
2023-01-22T16:21:17.343Z,0
2023-01-22T16:26:17.367Z,0
2023-01-22T16:31:17.919Z,0
2023-01-22T16:36:17.341Z,0
2023-01-22T16:41:24.682Z,0
2023-01-22T16:46:17.445Z,0
2023-01-22T16:51:17.428Z,0
2023-01-22T16:56:17.359Z,0
2023-01-22T17:01:17.415Z,0
2023-01-22T17:06:17.383Z,0
2023-01-22T17:11:17.341Z,0
2023-01-22T17:16:17.688Z,0
2023-01-22T17:21:17.346Z,0
2023-01-22T17:26:17.383Z,0
2023-01-22T17:31:17.570Z,0
2023-01-22T17:36:17.397Z,0
2023-01-22T17:41:17.348Z,0
2023-01-22T17:46:18.456Z,0
2023-01-22T17:51:17.454Z,0
2023-01-22T17:56:17.364Z,0
2023-01-22T18:01:18.398Z,0
2023-01-22T18:06:17.499Z,0
2023-01-22T18:11:17.422Z,0
2023-01-22T18:16:17.586Z,0
2023-01-22T18:21:17.537Z,0
2023-01-22T18:26:17.376Z,0
2023-01-22T18:31:17.576Z,0
2023-01-22T18:36:17.474Z,0
2023-01-22T18:41:17.395Z,0
2023-01-22T18:46:17.452Z,0
2023-01-22T18:51:17.439Z,0
2023-01-22T18:56:17.578Z,0
2023-01-22T19:01:17.408Z,0
2023-01-22T19:06:17.423Z,0
2023-01-22T19:11:17.454Z,0
2023-01-22T19:16:17.630Z,0
2023-01-22T19:21:17.468Z,0
2023-01-22T19:26:17.756Z,0
2023-01-22T19:31:17.529Z,0
2023-01-22T19:36:17.392Z,0
2023-01-22T19:41:17.408Z,0
2023-01-22T19:46:17.478Z,0
2023-01-22T19:51:17.534Z,0
2023-01-22T19:56:17.408Z,0
2023-01-22T20:01:17.492Z,0
2023-01-22T20:06:17.394Z,0
2023-01-22T20:11:17.395Z,0
2023-01-22T20:16:17.555Z,0
2023-01-22T20:21:17.427Z,0
2023-01-22T20:26:17.386Z,0
2023-01-22T20:31:17.603Z,0
2023-01-22T20:36:17.440Z,0
2023-01-22T20:41:17.424Z,0
2023-01-22T20:46:17.476Z,0
2023-01-22T20:51:17.629Z,0
2023-01-22T21:16:20.041Z,0
2023-01-22T21:21:20.045Z,0
2023-01-22T21:26:19.954Z,0
2023-01-22T21:31:21.234Z,0
2023-01-22T21:36:19.901Z,0
2023-01-22T21:41:19.964Z,0
2023-01-22T21:46:20.133Z,0
2023-01-22T21:51:19.977Z,0
2023-01-22T21:56:21.496Z,0
2023-01-22T22:01:19.981Z,0
2023-01-22T22:06:31.752Z,0
2023-01-22T22:11:19.911Z,0
2023-01-22T22:16:25.849Z,0
2023-01-22T22:21:19.941Z,0
2023-01-22T22:26:42.671Z,0
2023-01-22T22:31:20.047Z,0
2023-01-22T22:36:19.999Z,0
2023-01-22T22:41:30.278Z,0
2023-01-22T22:46:20.202Z,0
2023-01-22T22:51:20.325Z,0
2023-01-22T23:01:24.093Z,0
2023-01-22T23:06:20.023Z,0
2023-01-22T23:11:21.646Z,0
2023-01-22T23:16:20.183Z,0
2023-01-22T23:21:20.013Z,0
2023-01-22T23:26:20.012Z,0
2023-01-22T23:31:20.132Z,0
2023-01-22T23:36:20.019Z,0
2023-01-22T23:41:25.643Z,0
2023-01-22T23:46:21.300Z,0
2023-01-22T23:51:20.035Z,0
2023-01-22T23:56:20.088Z,0
